Time;durP1;ratioP1;P1;durP2;ratioP2;P2;SDS_P1;SDS_P2;PMS_P1;PMS_P2;Temp;Humidity;BMP_temperature;BMP_pressure;BME280_temperature;BME280_humidity;BME280_pressure;Samples;Min_cycle;Max_cycle;Signal;HPM_P1;HPM_P2
2022/04/18 00:01:45;;;;;;;9.15;6.57;;;;;;;0.41;83.04;99299.44;4205790;28;20454;-72
2022/04/18 00:03:45;;;;;;;9.27;5.38;;;;;;;0.41;82.76;99299.44;4204092;28;20060;-72
2022/04/18 00:05:46;;;;;;;10.98;5.53;;;;;;;0.41;81.75;99291.28;4209682;27;20103;-72
2022/04/18 00:07:46;;;;;;;9.23;5.68;;;;;;;0.44;81.78;99288.00;4204305;28;20404;-72
2022/04/18 00:09:46;;;;;;;9.52;6.13;;;;;;;0.42;81.48;99284.78;4204831;27;20825;-72
2022/04/18 00:11:47;;;;;;;9.77;5.47;;;;;;;0.42;81.22;99279.31;4207379;27;20047;-72
2022/04/18 00:13:47;;;;;;;12.23;6.65;;;;;;;0.41;81.48;99274.94;4205352;28;20301;-72
2022/04/18 00:15:49;;;;;;;11.05;5.47;;;;;;;0.41;80.69;99276.88;4207651;28;20463;-72
2022/04/18 00:17:49;;;;;;;9.13;5.78;;;;;;;0.42;79.72;99281.22;4206013;28;20048;-72
2022/04/18 00:19:50;;;;;;;8.35;5.18;;;;;;;0.36;80.74;99282.41;4203686;28;20036;-72
2022/04/18 00:21:50;;;;;;;8.57;5.60;;;;;;;0.30;81.64;99269.94;4209479;27;20047;-72
2022/04/18 00:23:51;;;;;;;8.95;5.55;;;;;;;0.25;81.92;99268.09;4205466;27;20080;-72
2022/04/18 00:25:51;;;;;;;10.05;5.95;;;;;;;0.25;81.42;99268.09;4203985;27;20043;-72
2022/04/18 00:27:51;;;;;;;10.43;5.32;;;;;;;0.18;81.64;99262.19;4206491;28;20638;-72
2022/04/18 00:29:52;;;;;;;7.97;5.30;;;;;;;0.09;82.03;99263.94;4205873;27;20436;-72
2022/04/18 00:31:52;;;;;;;9.85;5.78;;;;;;;0.07;81.48;99266.13;4205729;27;20036;-72
2022/04/18 00:33:52;;;;;;;9.70;6.30;;;;;;;0.06;82.19;99261.78;4203942;28;20066;-72
2022/04/18 00:35:53;;;;;;;10.95;5.57;;;;;;;0.02;81.47;99258.84;4202217;28;20310;-72
2022/04/18 00:37:53;;;;;;;11.57;5.85;;;;;;;-0.02;82.31;99261.31;4202686;28;20052;-72
2022/04/18 00:39:54;;;;;;;9.80;5.22;;;;;;;-0.05;82.79;99261.91;4202663;28;20488;-72
2022/04/18 00:41:54;;;;;;;10.68;5.55;;;;;;;-0.06;82.27;99254.84;4203944;27;20044;-72
2022/04/18 00:43:55;;;;;;;10.00;5.65;;;;;;;-0.13;83.72;99250.84;4208884;27;20114;-71
2022/04/18 00:45:55;;;;;;;9.68;6.45;;;;;;;-0.21;83.96;99249.56;4202755;28;20043;-72
2022/04/18 00:47:55;;;;;;;11.20;6.90;;;;;;;-0.27;84.21;99245.28;4201568;28;20044;-72
2022/04/18 00:49:56;;;;;;;8.63;5.72;;;;;;;-0.28;84.34;99254.53;4202692;28;20083;-72
2022/04/18 00:51:57;;;;;;;9.15;6.53;;;;;;;-0.31;84.41;99245.06;4208305;28;20090;-72
2022/04/18 00:53:57;;;;;;;8.15;5.90;;;;;;;-0.34;84.80;99245.59;4202846;28;20054;-72
2022/04/18 00:55:59;;;;;;;10.80;5.97;;;;;;;-0.34;84.88;99247.53;4203059;28;20135;-72
2022/04/18 00:58:01;;;;;;;9.38;6.00;;;;;;;-0.36;84.82;99247.00;4201473;28;20059;-72
2022/04/18 01:00:03;;;;;;;10.73;6.22;;;;;;;-0.40;85.32;99243.25;4203816;28;20165;-73
2022/04/18 01:02:04;;;;;;;6.95;5.43;;;;;;;-0.39;85.92;99245.69;4207549;28;20017;-72
2022/04/18 01:04:05;;;;;;;11.77;6.20;;;;;;;-0.39;86.14;99245.69;4205985;28;20028;-72
2022/04/18 01:06:06;;;;;;;14.23;5.85;;;;;;;-0.38;86.61;99235.63;4205509;28;20020;-72
2022/04/18 01:08:07;;;;;;;9.73;5.78;;;;;;;-0.30;83.71;99230.34;4204532;28;20024;-72
2022/04/18 01:10:08;;;;;;;8.38;5.57;;;;;;;-0.27;82.91;99228.97;4207782;28;20015;-72
2022/04/18 01:12:08;;;;;;;8.43;5.82;;;;;;;-0.31;82.83;99219.78;4205717;28;20024;-72
2022/04/18 01:14:08;;;;;;;7.40;5.20;;;;;;;-0.34;83.26;99226.56;4210814;27;20321;-72
2022/04/18 01:16:09;;;;;;;7.45;5.60;;;;;;;-0.39;83.81;99221.22;4204814;28;20161;-72
2022/04/18 01:18:09;;;;;;;9.95;6.35;;;;;;;-0.44;84.76;99218.53;4205161;28;20032;-72
2022/04/18 01:20:10;;;;;;;11.63;7.15;;;;;;;-0.51;85.58;99215.34;4205289;28;20032;-72
2022/04/18 01:22:12;;;;;;;12.93;7.38;;;;;;;-0.54;85.75;99220.56;4205209;28;20031;-72
2022/04/18 01:28:59;;;;;;;12.57;7.70;;;;;;;-0.60;86.65;99215.16;4205533;28;20043;-72
2022/04/18 01:30:59;;;;;;;12.80;8.07;;;;;;;-0.63;86.84;99215.75;4209700;28;20522;-72
2022/04/18 01:32:59;;;;;;;10.90;7.13;;;;;;;-0.62;86.88;99214.63;4207218;28;20036;-72
2022/04/18 01:35:00;;;;;;;14.13;7.55;;;;;;;-0.64;86.35;99213.31;4205058;28;20110;-72
2022/04/18 01:37:00;;;;;;;11.32;6.82;;;;;;;-0.58;85.70;99221.13;4204704;28;20104;-72
2022/04/18 01:39:00;;;;;;;13.35;7.00;;;;;;;-0.50;84.76;99222.38;4218905;28;20128;-72
2022/04/18 01:41:01;;;;;;;11.75;6.72;;;;;;;-0.44;84.88;99215.81;4211678;28;20040;-72
2022/04/18 01:43:01;;;;;;;9.43;6.70;;;;;;;-0.45;83.66;99214.19;4205407;28;20047;-72
2022/04/18 01:45:01;;;;;;;12.73;7.15;;;;;;;-0.50;83.87;99211.53;4204717;28;20735;-72
2022/04/18 01:47:02;;;;;;;12.23;7.53;;;;;;;-0.61;85.10;99210.81;4208560;28;20491;-72
2022/04/18 01:49:02;;;;;;;13.18;7.50;;;;;;;-0.71;85.89;99207.41;4205171;28;20040;-72
2022/04/18 01:51:03;;;;;;;14.85;7.30;;;;;;;-0.76;85.42;99207.44;4210899;28;20388;-72
2022/04/18 01:53:03;;;;;;;12.50;7.45;;;;;;;-0.80;85.31;99223.50;4205361;28;20076;-72
2022/04/18 01:55:04;;;;;;;12.27;7.25;;;;;;;-0.88;85.80;99208.63;4204608;28;20175;-72
2022/04/18 01:57:05;;;;;;;12.68;7.10;;;;;;;-0.96;86.63;99214.69;4203892;28;20077;-72
2022/04/18 01:59:05;;;;;;;12.38;8.00;;;;;;;-1.02;87.56;99213.09;4204332;28;20047;-72
2022/04/18 02:01:06;;;;;;;9.10;6.78;;;;;;;-1.08;87.72;99205.25;4204795;28;20068;-72
2022/04/18 02:03:06;;;;;;;11.80;6.57;;;;;;;-1.11;88.00;99197.69;4204607;28;20055;-72
2022/04/18 02:05:07;;;;;;;9.13;5.93;;;;;;;-1.16;88.30;99195.81;4208011;28;20399;-72
2022/04/18 02:07:09;;;;;;;9.63;6.30;;;;;;;-1.15;88.31;99194.75;4207395;28;20051;-72
2022/04/18 02:09:10;;;;;;;8.98;6.00;;;;;;;-1.17;87.74;99192.28;4204660;28;20062;-72
2022/04/18 02:11:10;;;;;;;9.85;6.72;;;;;;;-1.14;87.43;99191.75;4205943;28;20044;-72
2022/04/18 02:13:10;;;;;;;9.98;6.15;;;;;;;-1.05;87.94;99191.13;4204422;28;20098;-72
2022/04/18 02:15:11;;;;;;;9.73;6.40;;;;;;;-1.03;86.43;99189.75;4204512;28;20048;-72
2022/04/18 02:17:11;;;;;;;9.52;5.68;;;;;;;-0.99;85.75;99190.00;4203836;28;20054;-72
2022/04/18 02:19:12;;;;;;;8.93;5.93;;;;;;;-1.06;85.53;99181.38;4204379;28;20234;-72
2022/04/18 02:21:12;;;;;;;9.05;5.72;;;;;;;-1.08;85.92;99181.63;4204723;28;20036;-72
2022/04/18 02:23:13;;;;;;;9.23;6.15;;;;;;;-1.14;85.35;99175.44;4204295;28;20032;-72
2022/04/18 02:25:13;;;;;;;14.35;7.13;;;;;;;-1.04;84.11;99177.25;4207237;28;20120;-72
2022/04/18 02:27:14;;;;;;;9.27;6.55;;;;;;;-0.89;82.72;99162.72;4204062;28;20123;-72
2022/04/18 02:29:14;;;;;;;9.02;6.03;;;;;;;-0.93;83.36;99170.63;4208000;28;20036;-72
2022/04/18 02:31:14;;;;;;;11.88;7.50;;;;;;;-1.08;85.65;99161.81;4204506;28;20032;-72
2022/04/18 02:33:15;;;;;;;9.20;7.07;;;;;;;-1.25;88.01;99163.03;4207489;28;20542;-72
2022/04/18 02:35:22;;;;;;;11.20;6.72;;;;;;;-1.30;88.45;99165.78;4208087;28;20380;-72
2022/04/18 02:37:23;;;;;;;9.63;6.65;;;;;;;-1.32;88.99;99161.75;4204709;28;20044;-72
2022/04/18 02:39:23;;;;;;;13.88;7.13;;;;;;;-1.32;88.83;99165.28;4209536;28;20047;-72
2022/04/18 02:41:23;;;;;;;9.60;6.35;;;;;;;-1.32;87.98;99161.75;4207333;28;20434;-72
2022/04/18 02:43:24;;;;;;;7.82;5.88;;;;;;;-1.35;87.60;99154.97;4209147;28;20084;-72
2022/04/18 02:45:25;;;;;;;9.98;6.18;;;;;;;-1.34;87.94;99162.00;4203208;28;20472;-72
2022/04/18 02:47:26;;;;;;;9.63;6.50;;;;;;;-1.33;88.14;99154.69;4201812;28;20047;-72
2022/04/18 02:49:26;;;;;;;9.18;6.03;;;;;;;-1.34;88.95;99140.28;4203943;28;20048;-72
2022/04/18 02:51:27;;;;;;;9.18;6.38;;;;;;;-1.31;87.45;99138.94;4203777;28;20047;-72
2022/04/18 02:53:28;;;;;;;9.98;6.30;;;;;;;-1.29;87.70;99142.16;4203859;28;20047;-72
2022/04/18 02:55:28;;;;;;;9.90;5.97;;;;;;;-1.24;86.00;99151.09;4204324;28;20138;-72
2022/04/18 02:57:28;;;;;;;10.32;6.40;;;;;;;-1.20;87.15;99146.69;4203389;28;20086;-72
2022/04/18 02:59:29;;;;;;;13.70;6.97;;;;;;;-1.24;85.54;99131.25;4203943;28;20052;-72
2022/04/18 03:01:29;;;;;;;10.55;6.30;;;;;;;-1.19;86.24;99128.50;4203856;28;20050;-72
2022/04/18 03:03:29;;;;;;;9.52;6.07;;;;;;;-1.23;86.47;99130.19;4204298;28;20096;-72
2022/04/18 03:05:30;;;;;;;12.10;6.32;;;;;;;-1.28;86.60;99131.03;4203777;28;20423;-72
2022/04/18 03:07:31;;;;;;;10.80;6.25;;;;;;;-1.31;86.45;99128.06;4202955;28;20044;-72
2022/04/18 03:09:31;;;;;;;9.13;7.20;;;;;;;-1.29;86.74;99125.88;4203182;28;20078;-72
2022/04/18 03:11:32;;;;;;;11.27;6.90;;;;;;;-1.27;87.14;99132.63;4203360;28;20036;-72
2022/04/18 03:13:33;;;;;;;9.82;6.97;;;;;;;-1.26;86.87;99134.25;4203607;28;20064;-72
2022/04/18 03:15:34;;;;;;;9.18;5.97;;;;;;;-1.24;86.81;99129.38;4203576;28;20433;-72
2022/04/18 03:17:34;;;;;;;9.68;6.10;;;;;;;-1.27;86.11;99132.63;4203127;28;20079;-72
2022/04/18 03:19:34;;;;;;;11.43;6.53;;;;;;;-1.33;85.48;99128.34;4202465;28;20043;-72
2022/04/18 03:21:35;;;;;;;10.25;6.55;;;;;;;-1.34;86.24;99125.91;4211713;28;20138;-72
2022/04/18 03:23:35;;;;;;;8.80;6.53;;;;;;;-1.29;85.76;99123.97;4207654;28;20047;-72
2022/04/18 03:25:36;;;;;;;9.80;6.72;;;;;;;-1.20;84.90;99126.88;4203444;28;20480;-72
2022/04/18 03:27:36;;;;;;;10.95;6.25;;;;;;;-1.22;84.60;99120.94;4202342;28;20625;-72
2022/04/18 03:29:37;;;;;;;11.52;6.35;;;;;;;-1.27;84.25;99110.13;4207947;28;20104;-72
2022/04/18 03:31:37;;;;;;;9.82;6.57;;;;;;;-1.29;84.75;99109.59;4207232;27;20123;-72
2022/04/18 03:33:38;;;;;;;7.50;6.10;;;;;;;-1.26;83.80;99119.88;4203322;28;20052;-72
2022/04/18 03:39:50;;;;;;;9.88;6.20;;;;;;;-1.32;83.96;99116.41;4203428;28;20046;-72
2022/04/18 03:40:18;;;;;;;10.60;5.85;;;;;;;-1.49;85.50;99129.56;4202990;28;20061;-72
2022/04/18 03:42:19;;;;;;;7.75;5.55;;;;;;;-1.52;85.95;99119.28;4203412;28;20048;-72
2022/04/18 03:44:19;;;;;;;11.23;5.82;;;;;;;-1.54;85.90;99124.19;4203252;28;20214;-72
2022/04/18 03:46:20;;;;;;;6.10;5.10;;;;;;;-1.45;85.42;99117.06;4205927;27;20035;-72
2022/04/18 03:48:20;;;;;;;7.43;5.30;;;;;;;-1.41;85.46;99101.81;4205324;28;20136;-72
2022/04/18 03:50:20;;;;;;;10.15;5.30;;;;;;;-1.38;85.02;99105.88;4208456;28;20123;-72
2022/04/18 03:52:22;;;;;;;8.48;4.78;;;;;;;-1.38;85.35;99103.16;4206582;28;20535;-72
2022/04/18 03:54:22;;;;;;;10.05;4.15;;;;;;;-1.47;86.06;99092.09;4208410;28;20036;-72
2022/04/18 03:56:23;;;;;;;8.93;4.78;;;;;;;-1.57;86.22;99098.44;4212908;28;20047;-72
2022/04/18 03:58:23;;;;;;;9.15;5.47;;;;;;;-1.66;87.35;99094.66;4202199;28;20413;-72
2022/04/18 04:00:24;;;;;;;8.07;5.65;;;;;;;-1.72;87.92;99093.09;4204282;28;20376;-72
2022/04/18 04:02:24;;;;;;;10.57;5.90;;;;;;;-1.76;88.20;99101.00;4201697;28;20134;-72
2022/04/18 04:04:25;;;;;;;11.70;6.70;;;;;;;-1.76;88.47;99092.03;4203221;28;20036;-72
2022/04/18 04:06:25;;;;;;;7.93;6.22;;;;;;;-1.75;87.90;99080.09;4200293;28;20047;-72
2022/04/18 04:08:25;;;;;;;9.20;6.68;;;;;;;-1.78;87.37;99078.75;4200977;28;20098;-72
2022/04/18 04:10:26;;;;;;;8.32;6.15;;;;;;;-1.76;87.76;99082.00;4204434;28;20055;-72
2022/04/18 04:12:27;;;;;;;9.10;6.95;;;;;;;-1.76;87.81;99081.19;4202804;28;20283;-73
2022/04/18 04:14:27;;;;;;;9.50;6.53;;;;;;;-1.74;87.67;99082.53;4202857;28;20043;-72
2022/04/18 04:16:28;;;;;;;9.15;6.57;;;;;;;-1.71;87.52;99086.59;4202923;28;20078;-72
2022/04/18 04:18:28;;;;;;;9.40;6.60;;;;;;;-1.73;86.38;99077.94;4205538;28;20338;-72
2022/04/18 04:20:28;;;;;;;11.23;7.18;;;;;;;-1.75;86.71;99077.38;4207791;28;20072;-72
2022/04/18 04:22:29;;;;;;;12.10;7.75;;;;;;;-1.82;86.92;99080.44;4202958;28;20421;-72
2022/04/18 04:24:29;;;;;;;13.18;6.85;;;;;;;-1.89;88.06;99085.38;4202933;28;20055;-73
2022/04/18 04:26:30;;;;;;;11.20;7.00;;;;;;;-1.95;89.13;99075.63;4201567;28;20044;-73
2022/04/18 04:28:30;;;;;;;11.02;6.60;;;;;;;-2.03;90.13;99073.50;4206074;28;20511;-73
2022/04/18 04:30:31;;;;;;;11.98;7.03;;;;;;;-2.06;90.08;99080.31;4204559;28;20403;-72
2022/04/18 04:32:31;;;;;;;10.13;6.32;;;;;;;-2.04;89.39;99080.03;4202413;28;20080;-72
2022/04/18 04:34:31;;;;;;;11.55;6.88;;;;;;;-2.02;89.45;99078.66;4204811;28;20098;-72
2022/04/18 04:36:32;;;;;;;12.00;7.28;;;;;;;-1.95;89.71;99082.97;4205136;28;20322;-72
2022/04/18 04:38:32;;;;;;;10.10;6.88;;;;;;;-1.91;88.76;99087.53;4204908;28;20495;-72
2022/04/18 04:40:32;;;;;;;8.90;6.90;;;;;;;-1.88;88.16;99086.16;4205329;28;20051;-72
2022/04/18 04:42:33;;;;;;;10.15;7.15;;;;;;;-1.88;87.94;99081.56;4211683;27;20108;-72
2022/04/18 04:44:33;;;;;;;11.65;7.03;;;;;;;-1.84;88.15;99088.03;4205746;28;20357;-72
2022/04/18 04:46:34;;;;;;;11.45;6.63;;;;;;;-1.74;86.73;99089.84;4204484;28;20166;-72
2022/04/18 04:48:35;;;;;;;9.75;6.43;;;;;;;-1.63;84.99;99096.03;4202643;28;20032;-72
2022/04/18 04:50:35;;;;;;;6.47;5.28;;;;;;;-1.57;85.57;99081.31;4206211;28;20493;-72
2022/04/18 04:52:35;;;;;;;9.23;5.82;;;;;;;-1.56;85.45;99083.75;4205522;28;20536;-72
2022/04/18 04:54:36;;;;;;;7.07;4.93;;;;;;;-1.55;86.64;99081.84;4205145;28;20150;-72
2022/04/18 04:56:36;;;;;;;6.88;4.95;;;;;;;-1.54;87.03;99080.75;4205468;28;20136;-72
2022/04/18 04:58:36;;;;;;;11.93;5.88;;;;;;;-1.45;85.81;99079.84;4205971;28;20332;-72
2022/04/18 05:00:38;;;;;;;9.13;5.80;;;;;;;-1.37;84.32;99086.59;4204454;28;20121;-72
2022/04/18 05:02:38;;;;;;;8.77;5.20;;;;;;;-1.31;84.17;99085.44;4209304;28;20044;-72
2022/04/18 05:04:39;;;;;;;7.10;5.13;;;;;;;-1.27;84.93;99093.81;4208235;28;20556;-72
2022/04/18 05:06:40;;;;;;;8.23;4.55;;;;;;;-1.28;84.43;99082.16;4204621;28;20051;-72
2022/04/18 05:08:41;;;;;;;8.02;4.78;;;;;;;-1.25;83.66;99089.72;4214383;28;20068;-72
2022/04/18 05:10:41;;;;;;;7.15;5.30;;;;;;;-1.17;84.73;99094.53;4207159;28;20063;-72
2022/04/18 05:12:42;;;;;;;8.25;5.13;;;;;;;-1.08;84.65;99100.16;4213423;27;20051;-72
2022/04/18 05:14:42;;;;;;;6.35;4.70;;;;;;;-1.05;84.68;99094.16;4207434;28;20368;-72
2022/04/18 05:16:43;;;;;;;7.40;4.70;;;;;;;-0.94;83.79;99092.16;4204491;28;20063;-72
2022/04/18 05:18:43;;;;;;;5.85;4.88;;;;;;;-0.89;84.70;99094.81;4205560;28;20093;-72
2022/04/18 05:20:47;;;;;;;8.13;5.18;;;;;;;-0.83;84.35;99085.50;4207470;28;20528;-72
2022/04/18 05:22:47;;;;;;;7.88;4.93;;;;;;;-0.77;83.74;99089.78;4205119;28;20044;-72
2022/04/18 05:24:47;;;;;;;8.38;5.55;;;;;;;-0.70;83.09;99086.72;4205749;28;20314;-72
2022/04/18 05:26:48;;;;;;;6.78;5.63;;;;;;;-0.74;83.80;99088.41;4210617;27;20051;-72
2022/04/18 05:28:48;;;;;;;9.57;6.00;;;;;;;-0.73;83.43;99088.13;4205522;28;20159;-72
2022/04/18 05:30:48;;;;;;;8.45;5.80;;;;;;;-0.71;84.06;99090.53;4206443;28;20062;-72
2022/04/18 05:32:49;;;;;;;11.90;5.65;;;;;;;-0.64;83.10;99083.66;4207490;28;20072;-72
2022/04/18 05:34:49;;;;;;;10.18;6.68;;;;;;;-0.60;82.71;99087.41;4204933;28;20051;-72
2022/04/18 05:36:52;;;;;;;10.15;6.82;;;;;;;-0.57;81.94;99080.59;4203987;28;20493;-72
2022/04/18 05:38:52;;;;;;;10.82;6.53;;;;;;;-0.54;83.77;99090.88;4205398;28;20262;-72
2022/04/18 05:40:53;;;;;;;10.88;6.10;;;;;;;-0.51;84.50;99097.63;4209793;27;20048;-72
2022/04/18 05:42:54;;;;;;;9.02;6.32;;;;;;;-0.49;82.61;99090.84;4204842;28;20266;-72
2022/04/18 05:44:54;;;;;;;10.88;6.43;;;;;;;-0.50;83.36;99097.34;4209713;27;20550;-72
2022/04/18 05:46:54;;;;;;;9.13;6.38;;;;;;;-0.50;84.89;99104.69;4136156;28;20570;-72
2022/04/18 05:48:55;;;;;;;8.73;5.80;;;;;;;-0.48;86.44;99094.34;4204092;28;20740;-72
2022/04/18 05:50:55;;;;;;;10.75;5.53;;;;;;;-0.41;84.15;99097.53;4204924;28;20056;-72
2022/04/18 05:52:56;;;;;;;10.20;6.38;;;;;;;-0.33;83.00;99091.47;4204948;28;20044;-72
2022/04/18 05:54:56;;;;;;;11.13;5.85;;;;;;;-0.25;83.47;99095.41;4204857;28;20036;-72
2022/04/18 05:56:57;;;;;;;16.13;6.20;;;;;;;-0.20;83.41;99093.44;4204036;28;20047;-72
2022/04/18 05:58:58;;;;;;;15.65;5.57;;;;;;;-0.10;82.28;99089.78;4202946;28;20052;-72
2022/04/18 06:00:58;;;;;;;19.00;6.15;;;;;;;-0.03;81.54;99085.59;4207769;28;20479;-72
2022/04/18 06:02:59;;;;;;;10.88;5.70;;;;;;;0.04;81.31;99084.41;4209172;27;20032;-73
2022/04/18 06:04:59;;;;;;;12.75;6.07;;;;;;;0.04;82.05;99090.66;4210679;28;20134;-72
2022/04/18 06:07:00;;;;;;;10.90;5.70;;;;;;;0.08;82.70;99091.69;4207367;28;20036;-72
2022/04/18 06:09:00;;;;;;;16.33;6.22;;;;;;;0.15;83.47;99094.84;4200611;28;20032;-72
2022/04/18 06:11:00;;;;;;;17.15;9.77;;;;;;;0.21;85.57;99101.03;4207220;28;20108;-72
2022/04/18 06:13:01;;;;;;;16.95;10.25;;;;;;;0.23;86.04;99104.25;4210472;28;20052;-72
2022/04/18 06:15:01;;;;;;;17.95;9.27;;;;;;;0.32;87.57;99101.69;4205156;28;20079;-72
2022/04/18 06:17:02;;;;;;;17.67;8.73;;;;;;;0.39;86.57;99100.22;4209150;28;20416;-72
2022/04/18 06:19:02;;;;;;;15.23;9.50;;;;;;;0.44;87.35;99097.41;4204143;28;20044;-72
2022/04/18 06:21:03;;;;;;;22.45;11.75;;;;;;;0.53;87.00;99095.63;4203614;28;20052;-73
2022/04/18 06:23:04;;;;;;;24.60;14.23;;;;;;;0.57;86.88;99096.66;4202730;28;20044;-73
2022/04/18 06:25:05;;;;;;;32.28;15.90;;;;;;;0.66;86.65;99093.25;4204452;28;20051;-72
2022/04/18 06:27:05;;;;;;;27.45;16.98;;;;;;;0.74;86.50;99100.72;4212518;28;20044;-72
2022/04/18 06:29:06;;;;;;;22.65;13.65;;;;;;;0.84;86.44;99097.88;4208502;27;20067;-72
2022/04/18 06:31:06;;;;;;;21.95;9.57;;;;;;;0.94;86.98;99100.41;4207855;28;20143;-72
2022/04/18 06:33:12;;;;;;;14.48;9.45;;;;;;;1.03;86.08;99095.06;4204763;28;20044;-72
2022/04/18 06:35:12;;;;;;;17.02;8.82;;;;;;;1.10;85.15;99104.47;4205025;28;20051;-72
2022/04/18 06:37:13;;;;;;;13.82;8.50;;;;;;;1.15;84.71;99094.56;4208769;28;20388;-72
2022/04/18 06:39:13;;;;;;;15.85;9.35;;;;;;;1.25;82.42;99095.22;4209821;27;20028;-72
2022/04/18 06:41:14;;;;;;;13.93;8.07;;;;;;;1.34;81.57;99100.75;4204961;28;20064;-72
2022/04/18 06:43:16;;;;;;;16.08;7.05;;;;;;;1.49;84.97;99088.72;4206273;28;20115;-73
2022/04/18 06:45:16;;;;;;;15.27;7.15;;;;;;;1.63;85.16;99095.81;4203538;28;20036;-73
2022/04/18 06:47:19;;;;;;;8.10;6.32;;;;;;;1.78;84.15;99102.06;4208842;27;20349;-72
2022/04/18 06:49:19;;;;;;;10.73;6.40;;;;;;;1.88;82.84;99099.91;4205397;28;20082;-73
2022/04/18 06:51:20;;;;;;;10.52;6.18;;;;;;;1.97;82.08;99102.72;4204836;28;20032;-72
2022/04/18 06:53:20;;;;;;;9.90;6.50;;;;;;;2.06;81.40;99106.34;4208458;27;20048;-72
2022/04/18 06:55:21;;;;;;;11.98;7.35;;;;;;;2.14;81.65;99108.34;4204030;28;20749;-72
2022/04/18 06:57:21;;;;;;;9.18;6.85;;;;;;;2.21;81.31;99107.94;4202517;28;20052;-72
2022/04/18 06:59:21;;;;;;;14.02;7.72;;;;;;;2.28;80.88;99100.13;4203828;28;20395;-72
2022/04/18 07:01:22;;;;;;;11.30;6.93;;;;;;;2.37;80.09;99097.47;4203702;28;20040;-72
2022/04/18 07:03:22;;;;;;;14.73;8.13;;;;;;;2.50;80.81;99102.09;4203826;28;20661;-72
2022/04/18 07:05:23;;;;;;;10.00;7.22;;;;;;;2.66;81.52;99100.59;4203674;28;20040;-72
2022/04/18 07:07:23;;;;;;;10.07;7.43;;;;;;;2.77;81.16;99098.44;4205554;28;20490;-72
2022/04/18 07:09:23;;;;;;;9.15;6.93;;;;;;;2.89;80.20;99095.91;4204400;28;20343;-72
2022/04/18 07:11:24;;;;;;;10.35;7.13;;;;;;;3.01;80.11;99096.16;4204620;28;20036;-73
2022/04/18 07:13:24;;;;;;;11.45;6.20;;;;;;;3.14;80.01;99093.66;4202836;28;20569;-72
2022/04/18 07:15:25;;;;;;;16.83;6.93;;;;;;;3.24;80.06;99099.66;4203032;28;20044;-72
2022/04/18 07:17:26;;;;;;;9.52;6.38;;;;;;;3.33;80.23;99086.84;4208249;27;20093;-72
2022/04/18 07:19:28;;;;;;;16.45;6.75;;;;;;;3.51;79.81;99089.63;4202572;28;20032;-72
2022/04/18 07:21:28;;;;;;;11.93;6.70;;;;;;;3.60;78.17;99091.28;4206944;28;20040;-72
2022/04/18 07:23:29;;;;;;;13.65;8.13;;;;;;;3.68;78.04;99086.94;4204732;28;20150;-72
2022/04/18 07:25:30;;;;;;;14.93;9.38;;;;;;;3.87;77.22;99090.22;4203661;28;20058;-72
2022/04/18 07:27:30;;;;;;;15.15;8.52;;;;;;;4.03;77.61;99090.56;4201521;28;20048;-72
2022/04/18 07:29:30;;;;;;;11.98;7.55;;;;;;;4.15;77.37;99090.75;4202111;28;20725;-72
2022/04/18 07:31:31;;;;;;;15.93;7.65;;;;;;;4.34;76.43;99089.63;4202499;28;20458;-72
2022/04/18 07:33:33;;;;;;;11.10;8.25;;;;;;;4.46;76.32;99087.03;4201084;28;20135;-72
2022/04/18 07:35:35;;;;;;;9.05;6.25;;;;;;;4.56;75.51;99086.75;4210205;28;20055;-72
2022/04/18 07:37:35;;;;;;;8.35;5.30;;;;;;;4.62;75.57;99079.16;4201827;28;20196;-72
2022/04/18 07:39:36;;;;;;;8.70;6.32;;;;;;;4.71;76.44;99085.41;4203373;28;20132;-72
2022/04/18 07:41:37;;;;;;;14.02;8.85;;;;;;;4.81;75.78;99085.09;4208608;28;20031;-72
2022/04/18 07:43:39;;;;;;;12.07;6.43;;;;;;;4.93;76.23;99073.47;4203782;27;20314;-72
2022/04/18 07:45:40;;;;;;;12.60;7.38;;;;;;;5.03;75.03;99070.34;4205148;28;20476;-72
2022/04/18 07:47:40;;;;;;;10.40;6.60;;;;;;;5.08;72.48;99072.94;4201766;28;20407;-72
2022/04/18 07:49:41;;;;;;;8.10;6.00;;;;;;;5.14;73.02;99077.13;4201577;28;20042;-72
2022/04/18 07:51:42;;;;;;;7.25;5.38;;;;;;;5.24;74.83;99082.25;4205343;28;20048;-72
2022/04/18 07:53:43;;;;;;;13.85;7.90;;;;;;;5.33;74.83;99079.47;4202609;28;20045;-72
2022/04/18 07:55:45;;;;;;;8.60;6.07;;;;;;;5.45;74.21;99079.56;4211333;28;20048;-72
2022/04/18 07:57:45;;;;;;;7.07;5.45;;;;;;;5.58;74.41;99069.53;4206906;27;20119;-72
2022/04/18 07:59:46;;;;;;;7.30;5.57;;;;;;;5.69;75.01;99075.44;4207658;28;20080;-72
2022/04/18 08:01:46;;;;;;;7.95;5.25;;;;;;;5.79;74.50;99083.28;4202817;28;20482;-72
2022/04/18 08:03:48;;;;;;;6.20;4.63;;;;;;;5.89;71.21;99078.22;4202880;28;20040;-72
2022/04/18 08:05:48;;;;;;;7.47;4.88;;;;;;;6.08;69.55;99074.25;4202880;28;20854;-73
2022/04/18 08:07:48;;;;;;;6.60;5.25;;;;;;;6.12;69.78;99073.28;4205340;28;20093;-72
2022/04/18 08:09:50;;;;;;;6.40;5.18;;;;;;;6.16;68.13;99087.94;4204112;28;20044;-72
2022/04/18 08:11:51;;;;;;;6.78;4.45;;;;;;;6.30;68.58;99087.69;4202760;28;20051;-72
2022/04/18 08:13:52;;;;;;;6.43;4.57;;;;;;;6.41;68.12;99079.84;4203058;28;20040;-73
2022/04/18 08:15:53;;;;;;;5.88;4.25;;;;;;;6.48;68.76;99080.09;4202527;28;20456;-70
2022/04/18 08:17:53;;;;;;;6.25;5.03;;;;;;;6.54;68.63;99070.53;4201925;28;20105;-71
2022/04/18 08:19:54;;;;;;;6.45;4.60;;;;;;;6.66;69.33;99076.06;4203018;28;20714;-71
2022/04/18 08:21:54;;;;;;;6.50;3.90;;;;;;;6.73;68.06;99070.00;4202723;28;20037;-71
2022/04/18 08:23:54;;;;;;;5.78;5.07;;;;;;;6.87;68.99;99075.19;4204150;28;20038;-71
2022/04/18 08:25:55;;;;;;;6.75;4.55;;;;;;;7.01;69.21;99068.25;4202720;28;20384;-71
2022/04/18 08:27:55;;;;;;;5.78;4.53;;;;;;;7.24;64.07;99063.16;4203218;28;20480;-71
2022/04/18 08:29:55;;;;;;;5.63;4.03;;;;;;;7.39;63.24;99058.94;4209217;28;20044;-71
2022/04/18 08:31:56;;;;;;;5.63;4.57;;;;;;;7.44;63.24;99052.38;4202015;28;20081;-71
2022/04/18 08:33:56;;;;;;;5.50;3.83;;;;;;;7.50;62.97;99051.81;4202788;28;20032;-71
2022/04/18 08:35:58;;;;;;;4.65;3.15;;;;;;;7.58;58.88;99056.41;4202778;28;20473;-71
2022/04/18 08:38:01;;;;;;;6.50;3.50;;;;;;;7.77;58.55;99053.06;4201739;28;20076;-71
2022/04/18 08:40:10;;;;;;;4.90;3.00;;;;;;;7.85;58.29;99045.84;4202083;28;20044;-72
2022/04/18 08:42:11;;;;;;;4.63;3.30;;;;;;;7.94;57.80;99046.50;4204732;28;20410;-71
2022/04/18 08:44:13;;;;;;;5.72;3.55;;;;;;;8.08;60.48;99060.75;4203102;28;20044;-71
2022/04/18 08:46:14;;;;;;;5.07;3.97;;;;;;;8.16;59.04;99048.78;4203647;27;20020;-71
2022/04/18 08:52:58;;;;;;;7.13;4.72;;;;;;;8.25;57.07;99045.88;4202723;28;20069;-71
2022/04/18 08:54:58;;;;;;;6.00;4.47;;;;;;;8.30;57.96;99040.13;4202641;28;20071;-71
2022/04/18 08:56:58;;;;;;;8.68;5.65;;;;;;;8.38;59.44;99046.69;4201961;28;20373;-71
2022/04/18 08:58:59;;;;;;;6.68;4.53;;;;;;;8.44;58.75;99035.06;4209184;27;20447;-71
2022/04/18 09:01:01;;;;;;;7.97;4.20;;;;;;;8.58;57.00;99033.84;4202017;28;20040;-71
2022/04/18 09:03:01;;;;;;;5.13;3.80;;;;;;;8.67;59.16;99037.25;4204660;28;20505;-71
2022/04/18 09:05:02;;;;;;;5.25;3.80;;;;;;;8.87;57.67;99030.75;4202360;28;20353;-71
2022/04/18 09:07:13;;;;;;;7.25;5.90;;;;;;;9.10;57.74;99032.88;4201808;28;20067;-71
2022/04/18 09:09:14;;;;;;;7.07;4.85;;;;;;;9.17;57.56;99033.09;4202808;28;20047;-71
2022/04/18 09:11:29;;;;;;;7.43;4.20;;;;;;;9.13;56.64;99015.63;4202651;28;20383;-71
2022/04/18 09:13:29;;;;;;;5.68;3.50;;;;;;;9.13;57.23;99027.47;4202096;28;20096;-72
2022/04/18 09:15:30;;;;;;;5.38;4.10;;;;;;;9.14;57.11;99026.31;4202073;28;20122;-72
2022/04/18 09:17:32;;;;;;;4.72;3.80;;;;;;;9.11;57.88;99026.25;4201526;28;20394;-72
2022/04/18 09:19:33;;;;;;;5.32;3.55;;;;;;;9.09;55.68;99014.72;4204974;28;20039;-71
2022/04/18 09:21:33;;;;;;;5.38;4.20;;;;;;;9.14;54.68;99014.47;4207340;27;20048;-71
2022/04/18 09:23:35;;;;;;;8.02;4.43;;;;;;;9.30;53.88;99018.03;4205146;28;20096;-71
2022/04/18 09:25:38;;;;;;;5.53;3.63;;;;;;;9.42;52.75;99015.19;4205339;28;20135;-71
2022/04/18 09:27:38;;;;;;;4.93;3.40;;;;;;;9.60;53.31;99021.16;4204325;28;20312;-72
2022/04/18 09:29:40;;;;;;;6.47;3.92;;;;;;;9.68;54.75;99016.56;4205807;28;20093;-72
2022/04/18 09:31:41;;;;;;;8.97;3.83;;;;;;;9.70;54.85;99015.06;4205254;28;20131;-71
2022/04/18 09:33:46;;;;;;;5.50;3.03;;;;;;;9.74;53.88;99015.16;4211568;27;20072;-71
2022/04/18 09:35:47;;;;;;;4.93;3.00;;;;;;;9.78;52.38;99016.84;4208989;28;20067;-71
2022/04/18 09:37:47;;;;;;;3.70;2.90;;;;;;;9.84;49.09;99009.06;4207173;28;20109;-71
2022/04/18 09:39:52;;;;;;;5.25;3.50;;;;;;;9.83;49.32;99004.69;4205304;28;20131;-71
2022/04/18 09:42:07;;;;;;;6.15;3.25;;;;;;;9.91;49.97;98997.38;4206558;28;20151;-71